Track Гулевских Александра

Time Latitude Longitude Accuracy (66% radius in meters) Altitude (meters) Speed (km/hour) Bearing (degrees) Battery (%) GPS flag
09:26:11 60.370947 29.556316 8 80 0 208.53103637695 31 1 delete
09:25:58 60.370966 29.556318 16 70 0 232.59866333008 31 1 delete
09:25:46 60.371010 29.556324 8 82 0 331.28616333008 31 1 delete
09:25:37 60.370986 29.556311 8 84 0 207.81837463379 31 1 delete
09:25:33 60.370970 29.556289 6 83 0 207.81837463379 31 1 delete
09:25:21 60.370965 29.556266 6 71 0 207.81837463379 31 1 delete
09:25:08 60.370977 29.556319 6 68 0 184.94563293457 31 1 delete
09:24:56 60.370942 29.556278 6 68 0 184.94563293457 31 1 delete
09:24:45 60.370940 29.556306 4 71 0 184.94563293457 31 1 delete
09:24:44 60.370947 29.556303 4 73 0 184.94563293457 31 1 delete
09:24:31 60.371000 29.556383 6 86 0 99.699554443359 31 1 delete
09:24:19 60.370982 29.556320 6 86 0 99.699554443359 31 1 delete
09:24:08 60.370985 29.556344 6 79 0 99.699554443359 31 1 delete
09:24:06 60.370990 29.556385 8 82 0 99.699554443359 31 1 delete
09:23:53 60.371015 29.556393 6 87 0 99.699554443359 31 1 delete
09:23:41 60.370993 29.556392 4 89 0 99.699554443359 31 1 delete
09:23:30 60.370999 29.556454 6 73 0 99.699554443359 31 1 delete
09:23:29 60.371008 29.556458 6 73 0 99.699554443359 31 1 delete
09:23:17 60.371044 29.556448 6 95 0 99.699554443359 31 1 delete
09:23:16 60.371036 29.556443 16 97 0 99.699554443359 31 1 delete
09:23:08 60.370995 29.556424 6 94 0 99.699554443359 31 1 delete
09:23:04 60.370984 29.556410 4 92 0 99.699554443359 31 1 delete
09:22:54 60.370959 29.556365 4 86 0 99.699554443359 31 1 delete
09:22:51 60.370948 29.556338 6 84 0 99.699554443359 31 1 delete
09:22:46 60.370937 29.556285 4 83 0 99.699554443359 31 1 delete
09:22:38 60.370941 29.556164 8 73 0 99.699554443359 31 1 delete
09:22:25 60.370944 29.556187 8 71 0 99.699554443359 31 1 delete
09:22:13 60.370953 29.556253 6 73 0 99.699554443359 31 1 delete
09:22:11 60.370961 29.556279 6 74 0 99.699554443359 31 1 delete
09:22:07 60.370989 29.556350 12 78 0 99.699554443359 31 1 delete
09:22:01 60.371021 29.556421 6 84 0 99.699554443359 31 1 delete
09:21:47 60.371021 29.556428 12 84 0 99.699554443359 31 1 delete
09:21:35 60.370989 29.556386 8 83 0 99.699554443359 31 1 delete
09:21:22 60.371020 29.556439 4 93 0 99.699554443359 31 1 delete
09:21:16 60.371010 29.556439 4 94 0 99.699554443359 31 1 delete
09:21:10 60.370990 29.556450 12 96 0 99.699554443359 31 1 delete
09:20:57 60.370965 29.556421 8 91 0 99.699554443359 31 1 delete
09:20:47 60.370971 29.556327 8 79 0 99.699554443359 31 1 delete
09:20:44 60.370973 29.556352 6 79 0 99.699554443359 31 1 delete
09:20:33 60.370973 29.556454 8 92 0 99.699554443359 31 1 delete
09:20:23 60.370957 29.556416 8 92 0 99.699554443359 31 1 delete
09:20:20 60.370958 29.556378 6 91 0 99.699554443359 31 1 delete
09:20:08 60.370968 29.556256 6 74 0 99.699554443359 31 1 delete
09:20:04 60.370971 29.556320 12 80 0 99.699554443359 31 1 delete
09:19:55 60.370937 29.556367 6 82 0 99.699554443359 31 1 delete
09:19:43 60.370898 29.556340 6 61 0 306.26263427734 31 1 delete
09:19:40 60.370926 29.556336 6 62 0 306.26263427734 31 1 delete
09:19:30 60.370985 29.556340 4 83 0 215.88221740723 31 1 delete
09:19:17 60.370964 29.556390 6 85 0 215.88221740723 31 1 delete
09:19:05 60.370969 29.556390 8 75 0 215.88221740723 31 1 delete